الصفحة الرئيسية
METAR-TAF:

METAR-TAF

مطار :

أوسكمان, كازاخستان

دائرة عرض: 50-02-10N, خط طول: 082-29-39E, ارتفاع: 286 متر

مراقبة الطقس الحالي

تاريخ ووقت الإصدار 35 دقيقة قبل الساعة 11:00UTC
ريح 8 عقدة من الغرب/الشمال الغربي, الاتجاه يتراوح بين الغرب و الشمال الغربي
درجة الحرارة 10°درجة مئوية
الرطوبة 53%
ضغط 1025 hPa
الرؤية 10 كم أو أكثر
غيوم مفككة على ارتفاع 4600 قدم

METAR: UASK 241100Z 29004MPS 260V320 9999 BKN046 10/01 Q1025 R30/090060 NOSIG RMK QFE743/0991

زمن: 17:35 (11:35 UTC)

توقعات

تاريخ ووقت الإصدار 3ساعات و 33 دقيقة قبل الساعة 08:02UTC
التوقعات صالحة من24 الساعة 09 UTC إلى 24 الساعة 18 UTC
ريح 12 عقدة من الغرب/الشمال الغربي تتزايد حتى 21 عقدة
الرؤية 10 كم أو أكثر
غيوم مفككة على ارتفاع 2500 قدم, مزنة ركامية.
غيوم مفككة على ارتفاع 8000 قدم
مؤقت
من 24 الساعة 09 UTC إلى 24 الساعة 15 UTC
الرؤية: 5000 متر
غيوم متفرقة على ارتفاع 1100 قدم
زخات من الأمطار الخفيفة

TAF: UASK 240802Z 2409/2418 30006G11MPS 9999 BKN025CB BKN080 TEMPO 2409/2415 5000 -SHRA SCT011

أرصاد الطقس والتوقعات من أكثر من 4000 مطار (تقارير الطقس للمطار METAR والتنبؤ بالطقس بالمطارTAF).

المحطات المتاحة هي النقط الصفراء والحمراء على الخريطة.

حرك المؤشر فوق النقطة لمعرفة اسم المحطة.

ثم انقر لمعرفة أرصاد وتوقعات الطقس.

لتغيير الخارطة: اضغط على الأزرار الخضراء مع رمز الصليب الأسود للتكبير. على الزر الأخضر مع شرطة للتصغير، أو على الأسهم الخضراء للخرائط المجاورة.


METAR-TAF: